sensor_id;sensor_type;location;lat;lon;timestamp;P1;durP1;ratioP1;P2;durP2;ratioP2
49548;SDS011;35450;44.518;7.466;2022-11-15T00:02:39;13.98;;;9.02;;
49548;SDS011;35450;44.518;7.466;2022-11-15T00:06:02;16.85;;;9.45;;
49548;SDS011;35450;44.518;7.466;2022-11-15T00:09:26;15.05;;;9.70;;
49548;SDS011;35450;44.518;7.466;2022-11-15T00:12:48;13.38;;;9.38;;
49548;SDS011;35450;44.518;7.466;2022-11-15T00:16:11;15.55;;;10.30;;
49548;SDS011;35450;44.518;7.466;2022-11-15T00:19:34;13.65;;;9.73;;
49548;SDS011;35450;44.518;7.466;2022-11-15T00:22:57;16.75;;;11.10;;
49548;SDS011;35450;44.518;7.466;2022-11-15T00:26:19;15.40;;;10.40;;
49548;SDS011;35450;44.518;7.466;2022-11-15T00:29:41;15.80;;;10.50;;
49548;SDS011;35450;44.518;7.466;2022-11-15T00:33:07;21.67;;;13.98;;
49548;SDS011;35450;44.518;7.466;2022-11-15T00:36:32;20.75;;;10.70;;
49548;SDS011;35450;44.518;7.466;2022-11-15T00:39:56;17.58;;;10.85;;
49548;SDS011;35450;44.518;7.466;2022-11-15T00:43:19;14.32;;;8.32;;
49548;SDS011;35450;44.518;7.466;2022-11-15T00:46:41;10.52;;;7.68;;
49548;SDS011;35450;44.518;7.466;2022-11-15T00:50:04;18.90;;;10.20;;
49548;SDS011;35450;44.518;7.466;2022-11-15T00:53:27;15.65;;;9.68;;
49548;SDS011;35450;44.518;7.466;2022-11-15T00:56:49;16.25;;;9.73;;
49548;SDS011;35450;44.518;7.466;2022-11-15T01:00:12;19.60;;;8.70;;
49548;SDS011;35450;44.518;7.466;2022-11-15T01:03:36;13.77;;;9.13;;
49548;SDS011;35450;44.518;7.466;2022-11-15T01:07:00;20.75;;;9.48;;
49548;SDS011;35450;44.518;7.466;2022-11-15T01:10:23;14.02;;;9.13;;
49548;SDS011;35450;44.518;7.466;2022-11-15T01:13:47;16.90;;;9.52;;
49548;SDS011;35450;44.518;7.466;2022-11-15T01:17:09;13.63;;;8.85;;
49548;SDS011;35450;44.518;7.466;2022-11-15T01:20:32;18.85;;;9.23;;
49548;SDS011;35450;44.518;7.466;2022-11-15T01:23:55;14.73;;;9.20;;
49548;SDS011;35450;44.518;7.466;2022-11-15T01:27:18;12.23;;;8.23;;
49548;SDS011;35450;44.518;7.466;2022-11-15T01:30:41;14.90;;;8.13;;
49548;SDS011;35450;44.518;7.466;2022-11-15T01:34:04;11.88;;;8.02;;
49548;SDS011;35450;44.518;7.466;2022-11-15T01:37:27;20.52;;;10.40;;
49548;SDS011;35450;44.518;7.466;2022-11-15T01:40:50;14.43;;;7.88;;
49548;SDS011;35450;44.518;7.466;2022-11-15T01:48:02;16.42;;;8.95;;
49548;SDS011;35450;44.518;7.466;2022-11-15T01:51:25;11.70;;;7.22;;
49548;SDS011;35450;44.518;7.466;2022-11-15T01:54:53;14.02;;;7.28;;
49548;SDS011;35450;44.518;7.466;2022-11-15T01:58:25;11.65;;;6.93;;
49548;SDS011;35450;44.518;7.466;2022-11-15T02:01:48;12.88;;;7.20;;
49548;SDS011;35450;44.518;7.466;2022-11-15T02:05:11;11.27;;;7.18;;
49548;SDS011;35450;44.518;7.466;2022-11-15T02:08:35;9.75;;;7.05;;
49548;SDS011;35450;44.518;7.466;2022-11-15T02:11:57;11.27;;;7.47;;
49548;SDS011;35450;44.518;7.466;2022-11-15T02:15:22;10.73;;;7.28;;
49548;SDS011;35450;44.518;7.466;2022-11-15T02:18:50;10.52;;;7.07;;
49548;SDS011;35450;44.518;7.466;2022-11-15T02:29:23;14.40;;;8.57;;
49548;SDS011;35450;44.518;7.466;2022-11-15T02:36:49;15.20;;;8.05;;
49548;SDS011;35450;44.518;7.466;2022-11-15T02:44:26;11.07;;;6.78;;
49548;SDS011;35450;44.518;7.466;2022-11-15T02:47:56;10.73;;;6.20;;
49548;SDS011;35450;44.518;7.466;2022-11-15T02:51:21;10.98;;;6.70;;
49548;SDS011;35450;44.518;7.466;2022-11-15T03:10:16;13.52;;;7.82;;
49548;SDS011;35450;44.518;7.466;2022-11-15T03:17:19;10.98;;;6.50;;
49548;SDS011;35450;44.518;7.466;2022-11-15T03:20:58;12.02;;;7.57;;
49548;SDS011;35450;44.518;7.466;2022-11-15T03:24:23;12.82;;;7.30;;
49548;SDS011;35450;44.518;7.466;2022-11-15T03:27:48;10.55;;;7.03;;
49548;SDS011;35450;44.518;7.466;2022-11-15T03:31:14;10.43;;;7.20;;
49548;SDS011;35450;44.518;7.466;2022-11-15T03:35:06;10.48;;;7.32;;
49548;SDS011;35450;44.518;7.466;2022-11-15T03:38:33;9.63;;;6.28;;
49548;SDS011;35450;44.518;7.466;2022-11-15T03:46:06;9.82;;;6.50;;
49548;SDS011;35450;44.518;7.466;2022-11-15T03:49:35;11.43;;;6.88;;
49548;SDS011;35450;44.518;7.466;2022-11-15T03:53:00;9.55;;;6.38;;
49548;SDS011;35450;44.518;7.466;2022-11-15T03:56:23;10.50;;;6.57;;
49548;SDS011;35450;44.518;7.466;2022-11-15T03:59:46;15.68;;;6.32;;
49548;SDS011;35450;44.518;7.466;2022-11-15T04:03:08;13.43;;;6.28;;
49548;SDS011;35450;44.518;7.466;2022-11-15T04:09:53;9.55;;;6.75;;
49548;SDS011;35450;44.518;7.466;2022-11-15T04:13:25;9.65;;;6.95;;
49548;SDS011;35450;44.518;7.466;2022-11-15T04:16:47;9.52;;;7.03;;
49548;SDS011;35450;44.518;7.466;2022-11-15T04:20:18;10.75;;;6.78;;
49548;SDS011;35450;44.518;7.466;2022-11-15T04:24:04;8.13;;;6.00;;
49548;SDS011;35450;44.518;7.466;2022-11-15T04:27:27;8.35;;;6.15;;
49548;SDS011;35450;44.518;7.466;2022-11-15T04:30:50;8.55;;;6.35;;
49548;SDS011;35450;44.518;7.466;2022-11-15T04:34:12;9.27;;;5.75;;
49548;SDS011;35450;44.518;7.466;2022-11-15T04:40:57;11.40;;;6.22;;
49548;SDS011;35450;44.518;7.466;2022-11-15T04:44:20;9.30;;;6.20;;
49548;SDS011;35450;44.518;7.466;2022-11-15T04:47:43;9.27;;;5.95;;
49548;SDS011;35450;44.518;7.466;2022-11-15T04:51:07;12.48;;;6.55;;
49548;SDS011;35450;44.518;7.466;2022-11-15T04:58:01;11.15;;;6.40;;
49548;SDS011;35450;44.518;7.466;2022-11-15T05:01:24;7.05;;;5.25;;
49548;SDS011;35450;44.518;7.466;2022-11-15T05:04:47;8.00;;;5.50;;
49548;SDS011;35450;44.518;7.466;2022-11-15T05:11:32;9.52;;;5.30;;
49548;SDS011;35450;44.518;7.466;2022-11-15T05:14:54;6.72;;;4.88;;
49548;SDS011;35450;44.518;7.466;2022-11-15T05:18:17;11.00;;;6.43;;
49548;SDS011;35450;44.518;7.466;2022-11-15T05:21:40;10.35;;;6.47;;
49548;SDS011;35450;44.518;7.466;2022-11-15T05:25:03;12.73;;;6.80;;
49548;SDS011;35450;44.518;7.466;2022-11-15T05:28:27;12.05;;;6.43;;
49548;SDS011;35450;44.518;7.466;2022-11-15T05:31:50;12.95;;;8.60;;
49548;SDS011;35450;44.518;7.466;2022-11-15T05:35:27;18.05;;;9.68;;
49548;SDS011;35450;44.518;7.466;2022-11-15T05:38:54;14.85;;;7.53;;
49548;SDS011;35450;44.518;7.466;2022-11-15T05:42:17;24.50;;;14.38;;
49548;SDS011;35450;44.518;7.466;2022-11-15T05:45:39;12.75;;;8.80;;
49548;SDS011;35450;44.518;7.466;2022-11-15T05:49:02;13.57;;;9.20;;
49548;SDS011;35450;44.518;7.466;2022-11-15T05:52:28;18.13;;;9.98;;
49548;SDS011;35450;44.518;7.466;2022-11-15T05:55:55;11.82;;;7.45;;
49548;SDS011;35450;44.518;7.466;2022-11-15T05:59:18;12.00;;;6.28;;
49548;SDS011;35450;44.518;7.466;2022-11-15T06:02:41;13.32;;;7.38;;
49548;SDS011;35450;44.518;7.466;2022-11-15T06:06:04;10.85;;;6.25;;
49548;SDS011;35450;44.518;7.466;2022-11-15T06:09:27;12.90;;;5.68;;
49548;SDS011;35450;44.518;7.466;2022-11-15T06:12:59;12.48;;;5.80;;
49548;SDS011;35450;44.518;7.466;2022-11-15T06:16:23;7.75;;;5.43;;
49548;SDS011;35450;44.518;7.466;2022-11-15T06:19:46;7.30;;;4.40;;
49548;SDS011;35450;44.518;7.466;2022-11-15T06:23:09;12.93;;;4.43;;
49548;SDS011;35450;44.518;7.466;2022-11-15T06:26:31;7.35;;;5.10;;
49548;SDS011;35450;44.518;7.466;2022-11-15T06:29:54;13.00;;;6.03;;
49548;SDS011;35450;44.518;7.466;2022-11-15T06:33:16;7.10;;;3.95;;
49548;SDS011;35450;44.518;7.466;2022-11-15T06:36:39;5.28;;;3.85;;
49548;SDS011;35450;44.518;7.466;2022-11-15T06:40:01;7.15;;;3.03;;
49548;SDS011;35450;44.518;7.466;2022-11-15T06:43:25;8.25;;;3.42;;
49548;SDS011;35450;44.518;7.466;2022-11-15T06:46:48;5.63;;;2.97;;
49548;SDS011;35450;44.518;7.466;2022-11-15T06:50:10;8.15;;;5.30;;
49548;SDS011;35450;44.518;7.466;2022-11-15T06:53:33;5.43;;;3.50;;
49548;SDS011;35450;44.518;7.466;2022-11-15T06:56:56;5.55;;;3.40;;
49548;SDS011;35450;44.518;7.466;2022-11-15T07:00:20;4.95;;;3.10;;
49548;SDS011;35450;44.518;7.466;2022-11-15T07:03:44;4.47;;;3.17;;
49548;SDS011;35450;44.518;7.466;2022-11-15T07:07:09;6.30;;;4.13;;
49548;SDS011;35450;44.518;7.466;2022-11-15T07:10:32;5.68;;;4.00;;
49548;SDS011;35450;44.518;7.466;2022-11-15T07:13:54;10.00;;;5.82;;
49548;SDS011;35450;44.518;7.466;2022-11-15T07:17:17;41.88;;;22.67;;
49548;SDS011;35450;44.518;7.466;2022-11-15T07:20:39;48.08;;;28.55;;
49548;SDS011;35450;44.518;7.466;2022-11-15T07:27:25;26.55;;;15.15;;
49548;SDS011;35450;44.518;7.466;2022-11-15T07:34:10;8.32;;;5.88;;
49548;SDS011;35450;44.518;7.466;2022-11-15T07:37:33;14.43;;;7.80;;
49548;SDS011;35450;44.518;7.466;2022-11-15T07:44:19;9.65;;;6.38;;
49548;SDS011;35450;44.518;7.466;2022-11-15T07:47:45;11.02;;;6.72;;
49548;SDS011;35450;44.518;7.466;2022-11-15T07:51:10;11.27;;;6.20;;
49548;SDS011;35450;44.518;7.466;2022-11-15T07:54:34;7.45;;;5.22;;
49548;SDS011;35450;44.518;7.466;2022-11-15T07:58:04;9.95;;;6.53;;
49548;SDS011;35450;44.518;7.466;2022-11-15T08:01:28;17.43;;;9.03;;
49548;SDS011;35450;44.518;7.466;2022-11-15T08:04:51;14.32;;;9.18;;
49548;SDS011;35450;44.518;7.466;2022-11-15T08:08:14;16.50;;;9.23;;
49548;SDS011;35450;44.518;7.466;2022-11-15T08:11:37;11.65;;;8.13;;
49548;SDS011;35450;44.518;7.466;2022-11-15T08:15:00;12.30;;;6.97;;
49548;SDS011;35450;44.518;7.466;2022-11-15T08:18:23;12.93;;;7.70;;
49548;SDS011;35450;44.518;7.466;2022-11-15T08:21:46;13.60;;;8.45;;
49548;SDS011;35450;44.518;7.466;2022-11-15T08:28:31;14.75;;;9.27;;
49548;SDS011;35450;44.518;7.466;2022-11-15T08:31:55;21.10;;;11.15;;
49548;SDS011;35450;44.518;7.466;2022-11-15T08:35:18;22.95;;;12.32;;
49548;SDS011;35450;44.518;7.466;2022-11-15T08:38:43;23.88;;;12.85;;
49548;SDS011;35450;44.518;7.466;2022-11-15T08:42:06;18.63;;;11.90;;
49548;SDS011;35450;44.518;7.466;2022-11-15T08:45:29;28.27;;;12.85;;
49548;SDS011;35450;44.518;7.466;2022-11-15T08:48:53;20.23;;;11.98;;
49548;SDS011;35450;44.518;7.466;2022-11-15T08:52:17;19.98;;;11.70;;
49548;SDS011;35450;44.518;7.466;2022-11-15T08:55:40;24.58;;;14.15;;
49548;SDS011;35450;44.518;7.466;2022-11-15T08:59:08;19.67;;;11.52;;
49548;SDS011;35450;44.518;7.466;2022-11-15T09:02:31;20.25;;;11.60;;
49548;SDS011;35450;44.518;7.466;2022-11-15T09:09:17;35.58;;;10.70;;
49548;SDS011;35450;44.518;7.466;2022-11-15T09:12:39;23.85;;;11.45;;
49548;SDS011;35450;44.518;7.466;2022-11-15T09:16:03;27.02;;;10.70;;
49548;SDS011;35450;44.518;7.466;2022-11-15T09:19:26;28.48;;;12.05;;
49548;SDS011;35450;44.518;7.466;2022-11-15T09:22:49;19.48;;;11.90;;
49548;SDS011;35450;44.518;7.466;2022-11-15T09:26:11;23.67;;;12.48;;
49548;SDS011;35450;44.518;7.466;2022-11-15T09:29:34;25.35;;;12.32;;
49548;SDS011;35450;44.518;7.466;2022-11-15T09:32:57;19.60;;;11.40;;
49548;SDS011;35450;44.518;7.466;2022-11-15T09:36:20;17.27;;;11.48;;
49548;SDS011;35450;44.518;7.466;2022-11-15T09:39:43;19.95;;;12.25;;
49548;SDS011;35450;44.518;7.466;2022-11-15T09:46:44;18.33;;;12.37;;
49548;SDS011;35450;44.518;7.466;2022-11-15T09:53:57;19.42;;;12.10;;
49548;SDS011;35450;44.518;7.466;2022-11-15T09:57:12;21.63;;;14.10;;
49548;SDS011;35450;44.518;7.466;2022-11-15T10:00:21;24.67;;;14.57;;
49548;SDS011;35450;44.518;7.466;2022-11-15T10:03:41;23.60;;;15.02;;
49548;SDS011;35450;44.518;7.466;2022-11-15T10:06:51;22.90;;;15.45;;
49548;SDS011;35450;44.518;7.466;2022-11-15T10:13:30;22.60;;;13.95;;
49548;SDS011;35450;44.518;7.466;2022-11-15T10:23:49;21.92;;;13.40;;
49548;SDS011;35450;44.518;7.466;2022-11-15T10:26:55;22.05;;;14.40;;
49548;SDS011;35450;44.518;7.466;2022-11-15T10:29:59;21.52;;;13.40;;
49548;SDS011;35450;44.518;7.466;2022-11-15T10:36:30;21.45;;;14.77;;
49548;SDS011;35450;44.518;7.466;2022-11-15T10:39:35;21.40;;;13.55;;
49548;SDS011;35450;44.518;7.466;2022-11-15T10:42:39;22.33;;;13.60;;
49548;SDS011;35450;44.518;7.466;2022-11-15T10:45:44;20.25;;;13.43;;
49548;SDS011;35450;44.518;7.466;2022-11-15T10:48:49;24.73;;;13.70;;
49548;SDS011;35450;44.518;7.466;2022-11-15T10:55:24;24.50;;;14.82;;
49548;SDS011;35450;44.518;7.466;2022-11-15T10:58:38;23.02;;;13.80;;
49548;SDS011;35450;44.518;7.466;2022-11-15T11:01:46;20.80;;;13.13;;
49548;SDS011;35450;44.518;7.466;2022-11-15T11:04:51;22.17;;;14.23;;
49548;SDS011;35450;44.518;7.466;2022-11-15T11:08:01;27.33;;;12.65;;
49548;SDS011;35450;44.518;7.466;2022-11-15T11:11:23;17.73;;;12.52;;
49548;SDS011;35450;44.518;7.466;2022-11-15T11:14:30;18.25;;;12.75;;
49548;SDS011;35450;44.518;7.466;2022-11-15T11:21:13;23.73;;;14.75;;
49548;SDS011;35450;44.518;7.466;2022-11-15T11:37:52;17.83;;;11.90;;
49548;SDS011;35450;44.518;7.466;2022-11-15T11:44:53;20.58;;;12.73;;
49548;SDS011;35450;44.518;7.466;2022-11-15T11:48:41;17.17;;;11.88;;
49548;SDS011;35450;44.518;7.466;2022-11-15T11:52:00;21.20;;;14.05;;
49548;SDS011;35450;44.518;7.466;2022-11-15T11:55:16;18.02;;;11.95;;
49548;SDS011;35450;44.518;7.466;2022-11-15T11:58:35;19.98;;;12.70;;
49548;SDS011;35450;44.518;7.466;2022-11-15T12:01:43;20.20;;;12.60;;
49548;SDS011;35450;44.518;7.466;2022-11-15T12:04:49;17.25;;;11.23;;
49548;SDS011;35450;44.518;7.466;2022-11-15T12:07:59;17.02;;;10.82;;
49548;SDS011;35450;44.518;7.466;2022-11-15T12:11:29;15.50;;;11.30;;
49548;SDS011;35450;44.518;7.466;2022-11-15T12:18:12;18.75;;;10.63;;
49548;SDS011;35450;44.518;7.466;2022-11-15T12:21:22;21.52;;;11.93;;
49548;SDS011;35450;44.518;7.466;2022-11-15T12:24:49;18.15;;;11.52;;
49548;SDS011;35450;44.518;7.466;2022-11-15T12:28:12;21.15;;;12.25;;
49548;SDS011;35450;44.518;7.466;2022-11-15T12:31:23;19.63;;;12.98;;
49548;SDS011;35450;44.518;7.466;2022-11-15T12:34:43;23.25;;;13.88;;
49548;SDS011;35450;44.518;7.466;2022-11-15T12:37:49;22.80;;;12.50;;
49548;SDS011;35450;44.518;7.466;2022-11-15T12:47:36;19.80;;;12.93;;
49548;SDS011;35450;44.518;7.466;2022-11-15T12:53:57;20.77;;;14.88;;
49548;SDS011;35450;44.518;7.466;2022-11-15T13:03:22;21.17;;;14.00;;
49548;SDS011;35450;44.518;7.466;2022-11-15T13:06:42;21.40;;;14.23;;
49548;SDS011;35450;44.518;7.466;2022-11-15T13:13:08;22.83;;;15.45;;
49548;SDS011;35450;44.518;7.466;2022-11-15T13:16:17;20.30;;;14.98;;
49548;SDS011;35450;44.518;7.466;2022-11-15T13:19:23;20.33;;;15.10;;
49548;SDS011;35450;44.518;7.466;2022-11-15T13:22:28;23.13;;;15.15;;
49548;SDS011;35450;44.518;7.466;2022-11-15T13:26:10;25.75;;;17.38;;
49548;SDS011;35450;44.518;7.466;2022-11-15T13:29:19;25.20;;;16.13;;
49548;SDS011;35450;44.518;7.466;2022-11-15T13:32:23;21.35;;;15.23;;
49548;SDS011;35450;44.518;7.466;2022-11-15T13:35:38;29.10;;;16.30;;
49548;SDS011;35450;44.518;7.466;2022-11-15T13:38:44;23.60;;;16.75;;
49548;SDS011;35450;44.518;7.466;2022-11-15T13:41:48;24.23;;;16.85;;
49548;SDS011;35450;44.518;7.466;2022-11-15T13:44:58;23.40;;;16.02;;
49548;SDS011;35450;44.518;7.466;2022-11-15T13:48:04;24.90;;;15.85;;
49548;SDS011;35450;44.518;7.466;2022-11-15T13:51:17;21.80;;;15.43;;
49548;SDS011;35450;44.518;7.466;2022-11-15T14:00:58;29.13;;;19.20;;
49548;SDS011;35450;44.518;7.466;2022-11-15T14:04:10;26.02;;;17.52;;
49548;SDS011;35450;44.518;7.466;2022-11-15T14:07:18;25.38;;;17.05;;
49548;SDS011;35450;44.518;7.466;2022-11-15T14:13:34;24.85;;;16.40;;
49548;SDS011;35450;44.518;7.466;2022-11-15T14:16:44;23.50;;;14.57;;
49548;SDS011;35450;44.518;7.466;2022-11-15T14:19:50;23.05;;;16.13;;
49548;SDS011;35450;44.518;7.466;2022-11-15T14:22:55;22.15;;;15.85;;
49548;SDS011;35450;44.518;7.466;2022-11-15T14:26:01;21.35;;;16.13;;
49548;SDS011;35450;44.518;7.466;2022-11-15T14:32:48;25.15;;;14.85;;
49548;SDS011;35450;44.518;7.466;2022-11-15T14:35:53;24.33;;;16.65;;
49548;SDS011;35450;44.518;7.466;2022-11-15T14:38:59;23.92;;;16.60;;
49548;SDS011;35450;44.518;7.466;2022-11-15T14:42:05;21.20;;;14.93;;
49548;SDS011;35450;44.518;7.466;2022-11-15T14:45:14;21.67;;;15.73;;
49548;SDS011;35450;44.518;7.466;2022-11-15T14:48:20;23.95;;;16.77;;
49548;SDS011;35450;44.518;7.466;2022-11-15T14:51:25;25.90;;;17.85;;
49548;SDS011;35450;44.518;7.466;2022-11-15T14:54:29;31.42;;;19.17;;
49548;SDS011;35450;44.518;7.466;2022-11-15T14:57:34;32.47;;;20.05;;
49548;SDS011;35450;44.518;7.466;2022-11-15T15:00:39;29.30;;;20.20;;
49548;SDS011;35450;44.518;7.466;2022-11-15T15:03:45;28.50;;;19.92;;
49548;SDS011;35450;44.518;7.466;2022-11-15T15:06:50;28.20;;;20.00;;
49548;SDS011;35450;44.518;7.466;2022-11-15T15:09:55;32.33;;;20.50;;
49548;SDS011;35450;44.518;7.466;2022-11-15T15:13:00;29.63;;;19.70;;
49548;SDS011;35450;44.518;7.466;2022-11-15T15:16:05;29.42;;;20.52;;
49548;SDS011;35450;44.518;7.466;2022-11-15T15:19:10;31.27;;;20.35;;
49548;SDS011;35450;44.518;7.466;2022-11-15T15:22:18;30.33;;;20.20;;
49548;SDS011;35450;44.518;7.466;2022-11-15T15:25:32;32.42;;;19.90;;
49548;SDS011;35450;44.518;7.466;2022-11-15T15:28:37;37.15;;;20.63;;
49548;SDS011;35450;44.518;7.466;2022-11-15T15:31:42;31.45;;;19.67;;
49548;SDS011;35450;44.518;7.466;2022-11-15T15:34:46;29.05;;;18.48;;
49548;SDS011;35450;44.518;7.466;2022-11-15T15:37:50;28.77;;;19.80;;
49548;SDS011;35450;44.518;7.466;2022-11-15T15:40:54;30.25;;;19.95;;
49548;SDS011;35450;44.518;7.466;2022-11-15T15:43:58;26.88;;;18.52;;
49548;SDS011;35450;44.518;7.466;2022-11-15T15:47:06;26.25;;;17.42;;
49548;SDS011;35450;44.518;7.466;2022-11-15T15:53:18;29.90;;;18.67;;
49548;SDS011;35450;44.518;7.466;2022-11-15T15:56:22;34.92;;;22.15;;
49548;SDS011;35450;44.518;7.466;2022-11-15T15:59:26;37.63;;;23.10;;
49548;SDS011;35450;44.518;7.466;2022-11-15T16:02:30;41.05;;;24.20;;
49548;SDS011;35450;44.518;7.466;2022-11-15T16:05:34;37.65;;;22.50;;
49548;SDS011;35450;44.518;7.466;2022-11-15T16:08:38;36.00;;;23.23;;
49548;SDS011;35450;44.518;7.466;2022-11-15T16:11:43;39.83;;;24.35;;
49548;SDS011;35450;44.518;7.466;2022-11-15T16:14:48;35.30;;;22.42;;
49548;SDS011;35450;44.518;7.466;2022-11-15T16:17:56;39.22;;;22.83;;
49548;SDS011;35450;44.518;7.466;2022-11-15T16:21:02;35.38;;;22.25;;
49548;SDS011;35450;44.518;7.466;2022-11-15T16:24:06;33.55;;;21.30;;
49548;SDS011;35450;44.518;7.466;2022-11-15T16:27:12;32.92;;;20.45;;
49548;SDS011;35450;44.518;7.466;2022-11-15T16:30:23;30.85;;;20.13;;
49548;SDS011;35450;44.518;7.466;2022-11-15T16:33:27;30.98;;;20.30;;
49548;SDS011;35450;44.518;7.466;2022-11-15T16:36:32;36.15;;;22.20;;
49548;SDS011;35450;44.518;7.466;2022-11-15T16:39:38;32.33;;;21.17;;
49548;SDS011;35450;44.518;7.466;2022-11-15T16:42:42;32.47;;;21.30;;
49548;SDS011;35450;44.518;7.466;2022-11-15T16:45:46;50.55;;;21.65;;
49548;SDS011;35450;44.518;7.466;2022-11-15T16:48:50;33.17;;;21.33;;
49548;SDS011;35450;44.518;7.466;2022-11-15T16:51:56;30.83;;;21.02;;
49548;SDS011;35450;44.518;7.466;2022-11-15T16:55:00;34.05;;;21.33;;
49548;SDS011;35450;44.518;7.466;2022-11-15T16:58:04;37.88;;;21.80;;
49548;SDS011;35450;44.518;7.466;2022-11-15T17:01:11;37.25;;;22.48;;
49548;SDS011;35450;44.518;7.466;2022-11-15T17:04:25;31.50;;;21.55;;
49548;SDS011;35450;44.518;7.466;2022-11-15T17:07:34;36.92;;;22.95;;
49548;SDS011;35450;44.518;7.466;2022-11-15T17:10:39;36.35;;;23.13;;
49548;SDS011;35450;44.518;7.466;2022-11-15T17:13:46;33.70;;;22.30;;
49548;SDS011;35450;44.518;7.466;2022-11-15T17:16:51;36.47;;;24.15;;
49548;SDS011;35450;44.518;7.466;2022-11-15T17:19:55;38.08;;;24.85;;
49548;SDS011;35450;44.518;7.466;2022-11-15T17:22:59;58.50;;;34.10;;
49548;SDS011;35450;44.518;7.466;2022-11-15T17:26:04;59.35;;;31.38;;
49548;SDS011;35450;44.518;7.466;2022-11-15T17:29:08;55.97;;;31.75;;
49548;SDS011;35450;44.518;7.466;2022-11-15T17:32:13;39.65;;;25.90;;
49548;SDS011;35450;44.518;7.466;2022-11-15T17:35:16;36.22;;;23.58;;
49548;SDS011;35450;44.518;7.466;2022-11-15T17:38:20;36.78;;;25.85;;
49548;SDS011;35450;44.518;7.466;2022-11-15T17:41:25;41.42;;;24.85;;
49548;SDS011;35450;44.518;7.466;2022-11-15T17:44:30;38.70;;;24.30;;
49548;SDS011;35450;44.518;7.466;2022-11-15T17:47:34;38.50;;;23.20;;
49548;SDS011;35450;44.518;7.466;2022-11-15T17:50:38;33.92;;;23.27;;
49548;SDS011;35450;44.518;7.466;2022-11-15T17:53:46;35.97;;;23.35;;
49548;SDS011;35450;44.518;7.466;2022-11-15T17:56:51;35.97;;;25.27;;
49548;SDS011;35450;44.518;7.466;2022-11-15T17:59:55;35.55;;;24.80;;
49548;SDS011;35450;44.518;7.466;2022-11-15T18:02:59;34.42;;;23.27;;
49548;SDS011;35450;44.518;7.466;2022-11-15T18:06:04;37.00;;;24.75;;
49548;SDS011;35450;44.518;7.466;2022-11-15T18:09:08;35.08;;;24.50;;
49548;SDS011;35450;44.518;7.466;2022-11-15T18:12:12;36.42;;;24.30;;
49548;SDS011;35450;44.518;7.466;2022-11-15T18:15:16;34.35;;;23.35;;
49548;SDS011;35450;44.518;7.466;2022-11-15T18:18:21;33.83;;;23.98;;
49548;SDS011;35450;44.518;7.466;2022-11-15T18:21:26;39.30;;;24.67;;
49548;SDS011;35450;44.518;7.466;2022-11-15T18:24:32;40.78;;;24.48;;
49548;SDS011;35450;44.518;7.466;2022-11-15T18:27:37;40.15;;;26.00;;
49548;SDS011;35450;44.518;7.466;2022-11-15T18:30:41;35.92;;;24.70;;
49548;SDS011;35450;44.518;7.466;2022-11-15T18:33:46;40.72;;;25.23;;
49548;SDS011;35450;44.518;7.466;2022-11-15T18:36:51;38.45;;;24.75;;
49548;SDS011;35450;44.518;7.466;2022-11-15T18:39:55;42.38;;;26.85;;
49548;SDS011;35450;44.518;7.466;2022-11-15T18:42:59;36.80;;;24.65;;
49548;SDS011;35450;44.518;7.466;2022-11-15T18:46:09;42.22;;;30.83;;
49548;SDS011;35450;44.518;7.466;2022-11-15T18:52:21;43.35;;;26.20;;
49548;SDS011;35450;44.518;7.466;2022-11-15T18:55:25;42.25;;;26.33;;
49548;SDS011;35450;44.518;7.466;2022-11-15T18:58:33;47.88;;;31.15;;
49548;SDS011;35450;44.518;7.466;2022-11-15T19:01:40;48.15;;;29.98;;
49548;SDS011;35450;44.518;7.466;2022-11-15T19:04:45;45.58;;;25.83;;
49548;SDS011;35450;44.518;7.466;2022-11-15T19:07:49;41.63;;;26.25;;
49548;SDS011;35450;44.518;7.466;2022-11-15T19:10:53;44.55;;;27.10;;
49548;SDS011;35450;44.518;7.466;2022-11-15T19:13:58;51.88;;;32.05;;
49548;SDS011;35450;44.518;7.466;2022-11-15T19:17:05;45.72;;;30.52;;
49548;SDS011;35450;44.518;7.466;2022-11-15T19:20:09;45.45;;;28.08;;
49548;SDS011;35450;44.518;7.466;2022-11-15T19:23:13;39.45;;;26.40;;
49548;SDS011;35450;44.518;7.466;2022-11-15T19:26:17;45.97;;;27.67;;
49548;SDS011;35450;44.518;7.466;2022-11-15T19:29:21;38.55;;;27.27;;
49548;SDS011;35450;44.518;7.466;2022-11-15T19:32:26;43.00;;;26.45;;
49548;SDS011;35450;44.518;7.466;2022-11-15T19:35:29;38.88;;;25.58;;
49548;SDS011;35450;44.518;7.466;2022-11-15T19:38:33;40.33;;;27.27;;
49548;SDS011;35450;44.518;7.466;2022-11-15T19:41:42;39.85;;;25.33;;
49548;SDS011;35450;44.518;7.466;2022-11-15T19:44:46;44.35;;;27.42;;
49548;SDS011;35450;44.518;7.466;2022-11-15T19:47:50;42.35;;;25.80;;
49548;SDS011;35450;44.518;7.466;2022-11-15T19:50:58;42.97;;;25.63;;
49548;SDS011;35450;44.518;7.466;2022-11-15T19:54:06;45.87;;;27.50;;
49548;SDS011;35450;44.518;7.466;2022-11-15T19:57:12;41.28;;;26.15;;
49548;SDS011;35450;44.518;7.466;2022-11-15T20:00:16;44.83;;;29.98;;
49548;SDS011;35450;44.518;7.466;2022-11-15T20:03:20;47.42;;;28.48;;
49548;SDS011;35450;44.518;7.466;2022-11-15T20:06:25;41.65;;;26.83;;
49548;SDS011;35450;44.518;7.466;2022-11-15T20:09:34;37.20;;;25.67;;
49548;SDS011;35450;44.518;7.466;2022-11-15T20:12:38;40.13;;;26.90;;
49548;SDS011;35450;44.518;7.466;2022-11-15T20:15:42;44.20;;;29.13;;
49548;SDS011;35450;44.518;7.466;2022-11-15T20:18:46;45.90;;;30.08;;
49548;SDS011;35450;44.518;7.466;2022-11-15T20:21:51;44.78;;;28.52;;
49548;SDS011;35450;44.518;7.466;2022-11-15T20:24:55;43.38;;;29.38;;
49548;SDS011;35450;44.518;7.466;2022-11-15T20:27:59;49.05;;;30.70;;
49548;SDS011;35450;44.518;7.466;2022-11-15T20:31:03;51.40;;;31.77;;
49548;SDS011;35450;44.518;7.466;2022-11-15T20:34:07;50.13;;;32.13;;
49548;SDS011;35450;44.518;7.466;2022-11-15T20:37:11;47.03;;;31.23;;
49548;SDS011;35450;44.518;7.466;2022-11-15T20:40:15;44.60;;;29.55;;
49548;SDS011;35450;44.518;7.466;2022-11-15T20:43:19;49.75;;;29.50;;
49548;SDS011;35450;44.518;7.466;2022-11-15T20:46:23;42.33;;;28.45;;
49548;SDS011;35450;44.518;7.466;2022-11-15T20:49:27;47.50;;;31.52;;
49548;SDS011;35450;44.518;7.466;2022-11-15T20:52:31;62.28;;;38.05;;
49548;SDS011;35450;44.518;7.466;2022-11-15T20:55:42;50.28;;;31.02;;
49548;SDS011;35450;44.518;7.466;2022-11-15T20:58:51;48.25;;;31.17;;
49548;SDS011;35450;44.518;7.466;2022-11-15T21:01:55;46.38;;;29.20;;
49548;SDS011;35450;44.518;7.466;2022-11-15T21:04:59;47.97;;;30.27;;
49548;SDS011;35450;44.518;7.466;2022-11-15T21:08:03;51.67;;;31.02;;
49548;SDS011;35450;44.518;7.466;2022-11-15T21:11:07;49.47;;;30.30;;
49548;SDS011;35450;44.518;7.466;2022-11-15T21:14:30;49.35;;;30.98;;
49548;SDS011;35450;44.518;7.466;2022-11-15T21:17:34;51.47;;;32.95;;
49548;SDS011;35450;44.518;7.466;2022-11-15T21:20:38;49.15;;;31.13;;
49548;SDS011;35450;44.518;7.466;2022-11-15T21:23:42;52.30;;;31.90;;
49548;SDS011;35450;44.518;7.466;2022-11-15T21:26:46;51.25;;;32.28;;
49548;SDS011;35450;44.518;7.466;2022-11-15T21:29:50;52.22;;;32.17;;
49548;SDS011;35450;44.518;7.466;2022-11-15T21:32:54;52.03;;;31.55;;
49548;SDS011;35450;44.518;7.466;2022-11-15T21:35:58;52.75;;;32.00;;
49548;SDS011;35450;44.518;7.466;2022-11-15T21:39:02;50.88;;;32.15;;
49548;SDS011;35450;44.518;7.466;2022-11-15T21:42:06;55.15;;;31.90;;
49548;SDS011;35450;44.518;7.466;2022-11-15T21:45:10;53.47;;;32.88;;